Sondheimer, Louisiana
Current Conditions -  °F | °C
As of 9:53 PM on Friday 19 Dec 2014 (Local Time) from KTVR Reporting Station
Light Rain Light Rain  
Wind Chill: 43°   Ceiling: 3700
Heat Index: 47°   Visibility: 6mi
Dew Point: 44°   Wind: 8mph
Humidity: 90%   Direction: 20°NNE
Pressure: 30.2"   Gusts: NA
Location:  32.55°N, 91.18°W
Report Text: KTVR 200353Z AUTO 02007KT 6SM -RA BR FEW017 OVC037 08/07 A3020 RMK AO2 RAB53 SLP232 P0000 T00830067
Loading
Personal Weather Stations






























Interactive Weather Map New forecast layout! Learn more

10-Day Weather Forecast

Advertisements
Track Severe Weather on mobile